| time (UTC) | temp F | wind direction | speed knots | gust knots | rain 1hr in | rain 24hr in | rain mn in | humidity % | barometer mb |
| 20260507164347 | 65 | 303 | 1.7 | 3.5 | 0.00 | 0.00 | 0.00 | 40 | 1010.9 |
| 20260507163846 | 64 | 123 | 2.6 | 7.0 | 0.00 | 0.00 | 0.00 | 37 | 1011.0 |
| 20260507163348 | 64 | 162 | 1.7 | 5.2 | 0.00 | 0.00 | 0.00 | 41 | 1011.0 |
| 20260507162846 | 63 | 300 | 0.9 | 2.6 | 0.00 | 0.00 | 0.00 | 39 | 1011.2 |
| 20260507162345 | 62 | 35 | 0.9 | 2.6 | 0.00 | 0.00 | 0.00 | 43 | 1011.2 |
| 20260507161846 | 62 | 194 | 1.7 | 3.5 | 0.00 | 0.00 | 0.00 | 41 | 1011.3 |
| 20260507161347 | 64 | 192 | 3.5 | 6.1 | 0.00 | 0.00 | 0.00 | 40 | 1011.3 |
| 20260507160846 | 64 | 116 | 1.7 | 6.1 | 0.00 | 0.00 | 0.00 | 37 | 1011.4 |
| 20260507160345 | 65 | 67 | 3.5 | 5.2 | 0.00 | 0.00 | 0.00 | 36 | 1011.4 |
| 20260507155848 | 65 | 82 | 3.5 | 5.2 | 0.00 | 0.00 | 0.00 | 39 | 1011.6 |
| 20260507155345 | 65 | 25 | 1.7 | 4.3 | 0.00 | 0.00 | 0.00 | 37 | 1011.6 |
| 20260507154846 | 64 | 226 | 0.9 | 4.3 | 0.00 | 0.00 | 0.00 | 40 | 1011.6 |
| 20260507154346 | 64 | 264 | 3.5 | 6.1 | 0.00 | 0.00 | 0.00 | 39 | 1011.8 |
| 20260507153848 | 63 | 272 | 2.6 | 6.1 | 0.00 | 0.00 | 0.00 | 40 | 1011.8 |
| 20260507153346 | 64 | 46 | 1.7 | 4.3 | 0.00 | 0.00 | 0.00 | 40 | 1011.8 |
| 20260507152848 | 63 | 6 | 0.9 | 2.6 | 0.00 | 0.00 | 0.00 | 41 | 1011.9 |
| 20260507152015 | 63 | 330 | 1.7 | 4.3 | 0.00 | 0.00 | 0.00 | 38 | 1012.1 |
| 20260507151520 | 63 | 312 | 4.3 | 7.0 | 0.00 | 0.00 | 0.00 | 38 | 1012.1 |
| 20260507151017 | 62 | 326 | 2.6 | 6.1 | 0.00 | 0.00 | 0.00 | 37 | 1012.1 |
| 20260507150514 | 62 | 325 | 2.6 | 6.1 | 0.00 | 0.00 | 0.00 | 37 | 1012.2 |
| 20260507150011 | 62 | 265 | 2.6 | 6.1 | 0.00 | 0.00 | 0.00 | 39 | 1012.3 |
| 20260507145512 | 62 | 306 | 2.6 | 5.2 | 0.00 | 0.00 | 0.00 | 39 | 1012.4 |
| 20260507145013 | 61 | 2 | 3.5 | 6.1 | 0.00 | 0.00 | 0.00 | 41 | 1012.4 |
| 20260507144512 | 62 | 101 | 0.0 | 2.6 | 0.00 | 0.00 | 0.00 | 41 | 1012.6 |
| 20260507144011 | 62 | 274 | 2.6 | 4.3 | 0.00 | 0.00 | 0.00 | 42 | 1012.6 |
| 20260507143514 | 61 | 252 | 1.7 | 4.3 | 0.00 | 0.00 | 0.00 | 45 | 1012.6 |
| 20260507143013 | 62 | 122 | 1.7 | 3.5 | 0.00 | 0.00 | 0.00 | 42 | 1012.7 |
| 20260507142512 | 62 | 296 | 0.9 | 2.6 | 0.00 | 0.00 | 0.00 | 43 | 1012.7 |
| 20260507142012 | 61 | 313 | 1.7 | 4.3 | 0.00 | 0.00 | 0.00 | 43 | 1012.9 |
| 20260507141515 | 60 | 296 | 1.7 | 6.1 | 0.00 | 0.00 | 0.00 | 44 | 1013.0 |
| 20260507141014 | 59 | 274 | 1.7 | 3.5 | 0.00 | 0.00 | 0.00 | 47 | 1013.1 |
| 20260507140511 | 58 | 16 | 0.9 | 2.6 | 0.00 | 0.00 | 0.00 | 47 | 1013.1 |
| 20260507140015 | 58 | 354 | 0.0 | 0.0 | 0.00 | 0.00 | 0.00 | 49 | 1013.1 |
| 20260507135514 | 58 | 180 | 1.7 | 2.6 | 0.00 | 0.00 | 0.00 | 48 | 1013.2 |
| 20260507135013 | 58 | 279 | 0.0 | 0.9 | 0.00 | 0.00 | 0.00 | 47 | 1013.3 |
| 20260507134511 | 56 | 89 | 0.9 | 2.6 | 0.00 | 0.00 | 0.00 | 47 | 1013.4 |
| 20260507134012 | 55 | 52 | 0.0 | 3.5 | 0.00 | 0.00 | 0.00 | 52 | 1013.5 |
| 20260507133512 | 54 | 339 | 0.0 | 1.7 | 0.00 | 0.00 | 0.00 | 56 | 1013.6 |
| 20260507133011 | 53 | 290 | 1.7 | 3.5 | 0.00 | 0.00 | 0.00 | 56 | 1013.7 |
| 20260507132513 | 54 | 258 | 2.6 | 3.5 | 0.00 | 0.00 | 0.00 | 56 | 1013.7 |
| 20260507132014 | 54 | 276 | 0.9 | 1.7 | 0.00 | 0.00 | 0.00 | 54 | 1013.7 |
| 20260507131517 | 54 | 0 | 0.0 | 0.0 | 0.00 | 0.00 | 0.00 | 55 | 1013.7 |
| 20260507131012 | 53 | 273 | 0.0 | 0.0 | 0.00 | 0.00 | 0.00 | 55 | 1013.7 |
| 20260507130515 | 53 | 250 | 0.9 | 1.7 | 0.00 | 0.00 | 0.00 | 57 | 1013.7 |
| 20260507130013 | 53 | 333 | 0.9 | 1.7 | 0.00 | 0.00 | 0.00 | 54 | 1013.8 |
| 20260507125513 | 53 | 0 | 0.0 | 0.0 | 0.00 | 0.00 | 0.00 | 55 | 1013.8 |
| 20260507125012 | 53 | 339 | 0.0 | 0.9 | 0.00 | 0.00 | 0.00 | 56 | 1013.8 |
| 20260507124512 | 53 | 328 | 0.9 | 1.7 | 0.00 | 0.00 | 0.00 | 58 | 1013.8 |
| 20260507124012 | 53 | 253 | 1.7 | 2.6 | 0.00 | 0.00 | 0.00 | 60 | 1013.7 |
| 20260507123511 | 53 | 319 | 0.0 | 0.9 | 0.00 | 0.00 | 0.00 | 57 | 1013.7 |
| 20260507123011 | 52 | 0 | 0.0 | 0.0 | 0.00 | 0.00 | 0.00 | 58 | 1013.7 |
| 20260507122512 | 52 | 0 | 0.0 | 0.0 | 0.00 | 0.00 | 0.00 | 61 | 1013.8 |
| 20260507122012 | 51 | 0 | 0.0 | 0.0 | 0.00 | 0.00 | 0.00 | 59 | 1013.7 |
| 20260507121512 | 51 | 341 | 1.7 | 1.7 | 0.00 | 0.00 | 0.00 | 58 | 1013.7 |
| 20260507121011 | 51 | 271 | 0.9 | 0.9 | 0.00 | 0.00 | 0.00 | 60 | 1013.6 |
| 20260507120512 | 51 | 0 | 0.0 | 0.0 | 0.00 | 0.00 | 0.00 | 60 | 1013.6 |
| 20260507120011 | 51 | 0 | 0.0 | 0.0 | 0.00 | 0.00 | 0.00 | 61 | 1013.6 |
| 20260507115514 | 51 | 329 | 0.0 | 0.9 | 0.00 | 0.00 | 0.00 | 61 | 1013.7 |
| 20260507115013 | 50 | 288 | 0.0 | 0.9 | 0.00 | 0.00 | 0.00 | 64 | 1013.7 |
| 20260507114513 | 50 | 0 | 0.0 | 0.0 | 0.00 | 0.00 | 0.00 | 63 | 1013.7 |
| 20260507114011 | 50 | 0 | 0.0 | 0.0 | 0.00 | 0.00 | 0.00 | 69 | 1013.7 |
| 20260507113512 | 49 | 0 | 0.0 | 0.0 | 0.00 | 0.00 | 0.00 | 69 | 1013.6 |
| 20260507113011 | 49 | 332 | 0.0 | 0.9 | 0.00 | 0.00 | 0.00 | 68 | 1013.6 |
| 20260507112512 | 49 | 232 | 0.0 | 0.9 | 0.00 | 0.00 | 0.00 | 74 | 1013.6 |
| 20260507112013 | 49 | 0 | 0.0 | 0.0 | 0.00 | 0.00 | 0.00 | 74 | 1013.6 |
| 20260507111512 | 48 | 0 | 0.0 | 0.0 | 0.00 | 0.00 | 0.00 | 78 | 1013.5 |
| 20260507111012 | 48 | 0 | 0.0 | 0.0 | 0.00 | 0.00 | 0.00 | 71 | 1013.4 |
| 20260507110512 | 48 | 286 | 0.9 | 1.7 | 0.00 | 0.00 | 0.00 | 73 | 1013.4 |
| 20260507110012 | 48 | 290 | 0.0 | 0.0 | 0.00 | 0.00 | 0.00 | 84 | 1013.4 |
| 20260507105512 | 47 | 0 | 0.0 | 0.0 | 0.00 | 0.00 | 0.00 | 84 | 1013.4 |
| 20260507105011 | 47 | 0 | 0.0 | 0.0 | 0.00 | 0.00 | 0.00 | 83 | 1013.2 |
| 20260507104512 | 47 | 0 | 0.0 | 0.0 | 0.00 | 0.00 | 0.00 | 86 | 1013.2 |
| 20260507104012 | 47 | 0 | 0.0 | 0.0 | 0.00 | 0.00 | 0.00 | 85 | 1013.0 |
| 20260507103512 | 48 | 0 | 0.0 | 0.0 | 0.00 | 0.00 | 0.00 | 84 | 1013.0 |
| 20260507103013 | 48 | 0 | 0.0 | 0.0 | 0.00 | 0.00 | 0.00 | 81 | 1012.9 |
| 20260507102511 | 48 | 0 | 0.0 | 0.0 | 0.00 | 0.00 | 0.00 | 81 | 1012.8 |
| 20260507102012 | 48 | 0 | 0.0 | 0.0 | 0.00 | 0.00 | 0.00 | 77 | 1012.8 |
| 20260507101511 | 48 | 0 | 0.0 | 0.0 | 0.00 | 0.00 | 0.00 | 83 | 1012.7 |
| 20260507101011 | 47 | 0 | 0.0 | 0.0 | 0.00 | 0.00 | 0.00 | 81 | 1012.7 |
| 20260507100511 | 47 | 275 | 0.0 | 0.9 | 0.00 | 0.00 | 0.00 | 78 | 1012.6 |
| 20260507100011 | 47 | 0 | 0.0 | 0.0 | 0.00 | 0.00 | 0.00 | 82 | 1012.7 |
| 20260507095511 | 48 | 0 | 0.0 | 0.0 | 0.00 | 0.00 | 0.00 | 83 | 1012.7 |
| 20260507095012 | 48 | 0 | 0.0 | 0.0 | 0.00 | 0.00 | 0.00 | 81 | 1012.7 |
| 20260507094512 | 48 | 0 | 0.0 | 0.0 | 0.00 | 0.00 | 0.00 | 82 | 1012.6 |
| 20260507094012 | 48 | 0 | 0.0 | 0.0 | 0.00 | 0.00 | 0.00 | 83 | 1012.6 |
| 20260507093511 | 48 | 0 | 0.0 | 0.0 | 0.00 | 0.00 | 0.00 | 82 | 1012.6 |
| 20260507093011 | 48 | 0 | 0.0 | 0.0 | 0.00 | 0.00 | 0.00 | 79 | 1012.7 |
| 20260507092511 | 48 | 0 | 0.0 | 0.0 | 0.00 | 0.00 | 0.00 | 82 | 1012.6 |
| 20260507092012 | 49 | 0 | 0.0 | 0.0 | 0.00 | 0.00 | 0.00 | 81 | 1012.6 |
| 20260507091512 | 49 | 0 | 0.0 | 0.0 | 0.00 | 0.00 | 0.00 | 83 | 1012.6 |
| 20260507091012 | 49 | 0 | 0.0 | 0.0 | 0.00 | 0.00 | 0.00 | 83 | 1012.6 |
| 20260507090512 | 49 | 0 | 0.0 | 0.0 | 0.00 | 0.00 | 0.00 | 83 | 1012.6 |
| 20260507090011 | 49 | 0 | 0.0 | 0.0 | 0.00 | 0.00 | 0.00 | 81 | 1012.6 |
| 20260507085512 | 49 | 0 | 0.0 | 0.0 | 0.00 | 0.00 | 0.00 | 82 | 1012.5 |
| 20260507085012 | 49 | 0 | 0.0 | 0.0 | 0.00 | 0.00 | 0.00 | 74 | 1012.4 |
| 20260507084512 | 49 | 0 | 0.0 | 0.0 | 0.00 | 0.00 | 0.00 | 76 | 1012.4 |
| 20260507084012 | 49 | 355 | 0.0 | 0.9 | 0.00 | 0.00 | 0.00 | 75 | 1012.3 |
| 20260507083513 | 49 | 0 | 0.0 | 0.0 | 0.00 | 0.00 | 0.00 | 81 | 1012.4 |
| 20260507083012 | 49 | 0 | 0.0 | 0.0 | 0.00 | 0.00 | 0.00 | 81 | 1012.4 |
| 20260507082512 | 49 | 0 | 0.0 | 0.0 | 0.00 | 0.00 | 0.00 | 81 | 1012.4 |
| 20260507082012 | 49 | 0 | 0.0 | 0.0 | 0.00 | 0.00 | 0.00 | 81 | 1012.4 |
| 20260507081512 | 50 | 0 | 0.0 | 0.0 | 0.00 | 0.00 | 0.00 | 80 | 1012.3 |
| 20260507081012 | 50 | 0 | 0.0 | 0.0 | 0.00 | 0.00 | 0.00 | 79 | 1012.3 |
| 20260507080513 | 50 | 0 | 0.0 | 0.0 | 0.00 | 0.00 | 0.00 | 76 | 1012.3 |
| 20260507080011 | 50 | 0 | 0.0 | 0.0 | 0.00 | 0.00 | 0.00 | 77 | 1012.4 |
| 20260507075512 | 50 | 0 | 0.0 | 0.0 | 0.00 | 0.00 | 0.00 | 72 | 1012.2 |
| 20260507075011 | 50 | 0 | 0.0 | 0.0 | 0.00 | 0.00 | 0.00 | 73 | 1012.2 |
| 20260507074512 | 51 | 0 | 0.0 | 0.0 | 0.00 | 0.00 | 0.00 | 73 | 1012.3 |
| 20260507074011 | 51 | 0 | 0.0 | 0.0 | 0.00 | 0.00 | 0.00 | 76 | 1012.2 |
| 20260507073513 | 51 | 0 | 0.0 | 0.0 | 0.00 | 0.00 | 0.00 | 74 | 1012.2 |
| 20260507073012 | 51 | 0 | 0.0 | 0.0 | 0.00 | 0.00 | 0.00 | 71 | 1012.2 |
| 20260507072511 | 51 | 0 | 0.0 | 0.0 | 0.00 | 0.00 | 0.00 | 72 | 1012.3 |
| 20260507072012 | 51 | 294 | 0.0 | 0.0 | 0.00 | 0.00 | 0.00 | 73 | 1012.3 |
| 20260507071512 | 51 | 0 | 0.0 | 0.0 | 0.00 | 0.00 | 0.00 | 77 | 1012.3 |
| 20260507071013 | 51 | 325 | 0.0 | 0.0 | 0.00 | 0.00 | 0.00 | 77 | 1012.2 |
| 20260507070512 | 51 | 0 | 0.0 | 0.0 | 0.00 | 0.00 | 0.00 | 76 | 1012.2 |
| 20260507070014 | 51 | 0 | 0.0 | 0.0 | 0.00 | 0.00 | 0.00 | 78 | 1012.3 |
| 20260507065512 | 51 | 0 | 0.0 | 0.0 | 0.00 | 0.00 | 0.00 | 76 | 1012.1 |
| 20260507065012 | 51 | 0 | 0.0 | 0.0 | 0.00 | 0.00 | 0.00 | 77 | 1012.1 |
| 20260507064512 | 51 | 0 | 0.0 | 0.0 | 0.00 | 0.00 | 0.00 | 79 | 1012.2 |
| 20260507064012 | 52 | 0 | 0.0 | 0.0 | 0.00 | 0.00 | 0.00 | 81 | 1012.3 |
| 20260507063511 | 52 | 0 | 0.0 | 0.0 | 0.00 | 0.00 | 0.00 | 77 | 1012.3 |
| 20260507063012 | 52 | 0 | 0.0 | 0.0 | 0.00 | 0.00 | 0.00 | 75 | 1012.3 |
| 20260507062512 | 52 | 0 | 0.0 | 0.0 | 0.00 | 0.00 | 0.00 | 76 | 1012.4 |
| 20260507062012 | 53 | 0 | 0.0 | 0.0 | 0.00 | 0.00 | 0.00 | 75 | 1012.4 |
| 20260507061511 | 53 | 0 | 0.0 | 0.0 | 0.00 | 0.00 | 0.00 | 75 | 1012.4 |
| 20260507061011 | 53 | 143 | 0.0 | 0.9 | 0.00 | 0.00 | 0.00 | 74 | 1012.3 |
| 20260507060511 | 53 | 323 | 0.0 | 0.0 | 0.00 | 0.00 | 0.00 | 74 | 1012.4 |
| 20260507060012 | 53 | 315 | 0.9 | 1.7 | 0.00 | 0.00 | 0.00 | 73 | 1012.5 |
| 20260507055511 | 53 | 0 | 0.0 | 0.0 | 0.00 | 0.00 | 0.00 | 73 | 1012.5 |
| 20260507055012 | 53 | 0 | 0.0 | 0.0 | 0.00 | 0.00 | 0.00 | 73 | 1012.4 |
| 20260507054512 | 53 | 322 | 1.7 | 1.7 | 0.00 | 0.00 | 0.00 | 72 | 1012.4 |
| 20260507054012 | 53 | 288 | 0.0 | 1.7 | 0.00 | 0.00 | 0.00 | 73 | 1012.3 |
| 20260507053512 | 53 | 291 | 0.9 | 2.6 | 0.00 | 0.00 | 0.00 | 73 | 1012.3 |
| 20260507053011 | 53 | 305 | 0.0 | 1.7 | 0.00 | 0.00 | 0.00 | 72 | 1012.4 |
| 20260507052511 | 53 | 5 | 0.9 | 2.6 | 0.00 | 0.00 | 0.00 | 73 | 1012.2 |
| 20260507052013 | 53 | 75 | 0.0 | 1.7 | 0.00 | 0.00 | 0.00 | 74 | 1012.1 |
| 20260507051512 | 53 | 313 | 0.9 | 2.6 | 0.00 | 0.00 | 0.00 | 73 | 1012.2 |
| 20260507051011 | 53 | 329 | 0.9 | 1.7 | 0.00 | 0.00 | 0.00 | 74 | 1012.2 |
| 20260507050512 | 53 | 0 | 0.0 | 0.0 | 0.00 | 0.00 | 0.00 | 75 | 1012.1 |
| 20260507050011 | 53 | 0 | 0.0 | 0.0 | 0.00 | 0.00 | 0.00 | 75 | 1012.1 |
| 20260507045512 | 54 | 334 | 0.0 | 0.9 | 0.00 | 0.00 | 0.00 | 74 | 1012.1 |
| 20260507045013 | 53 | 296 | 0.9 | 1.7 | 0.00 | 0.00 | 0.00 | 74 | 1012.2 |
| 20260507044511 | 54 | 0 | 0.0 | 0.0 | 0.00 | 0.00 | 0.00 | 75 | 1012.1 |
| 20260507044011 | 54 | 319 | 0.9 | 1.7 | 0.00 | 0.00 | 0.00 | 75 | 1012.2 |
| 20260507043512 | 54 | 55 | 0.0 | 0.9 | 0.00 | 0.00 | 0.00 | 76 | 1012.3 |
| 20260507043012 | 54 | 0 | 0.0 | 0.0 | 0.00 | 0.00 | 0.00 | 76 | 1012.3 |
| 20260507042513 | 54 | 0 | 0.0 | 0.0 | 0.00 | 0.00 | 0.00 | 76 | 1012.2 |
| 20260507042012 | 54 | 81 | 0.0 | 1.7 | 0.00 | 0.00 | 0.00 | 76 | 1012.1 |
| 20260507041513 | 54 | 126 | 0.0 | 1.7 | 0.00 | 0.00 | 0.00 | 75 | 1012.1 |
| 20260507041012 | 54 | 0 | 0.0 | 0.0 | 0.00 | 0.00 | 0.00 | 76 | 1012.1 |
| 20260507040512 | 54 | 259 | 0.0 | 1.7 | 0.00 | 0.00 | 0.00 | 75 | 1012.3 |
| 20260507040013 | 54 | 329 | 0.0 | 1.7 | 0.00 | 0.00 | 0.21 | 76 | 1012.3 |
| 20260507035511 | 54 | 305 | 0.9 | 2.6 | 0.00 | 0.00 | 0.21 | 76 | 1012.2 |
| 20260507035011 | 54 | 232 | 0.9 | 1.7 | 0.00 | 0.00 | 0.21 | 76 | 1012.2 |
| 20260507034520 | 54 | 302 | 0.9 | 1.7 | 0.00 | 0.00 | 0.21 | 76 | 1012.5 |
| 20260507034011 | 54 | 231 | 0.0 | 0.9 | 0.00 | 0.00 | 0.21 | 77 | 1012.4 |
| 20260507033511 | 54 | 0 | 0.0 | 0.0 | 0.00 | 0.00 | 0.21 | 78 | 1012.3 |
| 20260507033012 | 54 | 323 | 1.7 | 4.3 | 0.00 | 0.00 | 0.21 | 77 | 1012.5 |
| 20260507032511 | 54 | 0 | 0.0 | 0.0 | 0.00 | 0.00 | 0.21 | 77 | 1012.4 |
| 20260507032013 | 54 | 39 | 0.0 | 1.7 | 0.00 | 0.00 | 0.21 | 77 | 1012.0 |
| 20260507031511 | 54 | 0 | 0.0 | 0.0 | 0.00 | 0.00 | 0.21 | 77 | 1011.9 |
| 20260507031012 | 54 | 240 | 0.0 | 1.7 | 0.00 | 0.00 | 0.21 | 76 | 1012.0 |
| 20260507030512 | 54 | 333 | 1.7 | 3.5 | 0.00 | 0.00 | 0.21 | 75 | 1012.2 |
| 20260507030012 | 54 | 265 | 0.9 | 3.5 | 0.00 | 0.00 | 0.21 | 75 | 1012.3 |
| 20260507025512 | 54 | 79 | 1.7 | 3.5 | 0.00 | 0.00 | 0.21 | 75 | 1012.1 |
| 20260507025011 | 54 | 340 | 0.0 | 1.7 | 0.00 | 0.00 | 0.21 | 75 | 1012.2 |
| 20260507024511 | 54 | 316 | 0.0 | 0.0 | 0.00 | 0.00 | 0.21 | 75 | 1012.2 |
| 20260507024012 | 54 | 331 | 0.9 | 2.6 | 0.00 | 0.00 | 0.21 | 75 | 1012.1 |
| 20260507023512 | 54 | 347 | 0.9 | 3.5 | 0.00 | 0.00 | 0.21 | 75 | 1012.2 |
| 20260507023012 | 55 | 268 | 0.0 | 0.9 | 0.00 | 0.00 | 0.21 | 76 | 1012.2 |
| 20260507022513 | 55 | 317 | 0.9 | 2.6 | 0.00 | 0.00 | 0.21 | 76 | 1012.0 |
| 20260507022012 | 55 | 344 | 0.0 | 1.7 | 0.00 | 0.00 | 0.21 | 76 | 1011.8 |
| 20260507021512 | 55 | 316 | 0.0 | 2.6 | 0.00 | 0.00 | 0.21 | 76 | 1011.8 |
| 20260507021011 | 55 | 296 | 1.7 | 3.5 | 0.00 | 0.00 | 0.21 | 75 | 1012.1 |
| 20260507020511 | 55 | 316 | 2.6 | 4.3 | 0.00 | 0.00 | 0.21 | 76 | 1012.3 |
| 20260507020012 | 55 | 31 | 0.0 | 1.7 | 0.00 | 0.00 | 0.21 | 77 | 1011.9 |
| 20260507015513 | 55 | 320 | 1.7 | 3.5 | 0.00 | 0.00 | 0.21 | 77 | 1012.6 |
| 20260507015011 | 55 | 322 | 1.7 | 2.6 | 0.00 | 0.00 | 0.21 | 78 | 1012.3 |
| 20260507014513 | 55 | 339 | 0.0 | 1.7 | 0.00 | 0.00 | 0.21 | 78 | 1012.1 |
| 20260507014012 | 55 | 325 | 1.7 | 2.6 | 0.00 | 0.00 | 0.21 | 80 | 1011.8 |
| 20260507013512 | 56 | 306 | 0.9 | 2.6 | 0.00 | 0.00 | 0.21 | 80 | 1011.8 |
| 20260507013012 | 56 | 355 | 1.7 | 2.6 | 0.00 | 0.00 | 0.21 | 80 | 1011.5 |
| 20260507012512 | 56 | 313 | 0.9 | 1.7 | 0.00 | 0.00 | 0.21 | 79 | 1011.7 |
| 20260507012011 | 56 | 344 | 2.6 | 4.3 | 0.00 | 0.00 | 0.21 | 79 | 1011.6 |
| 20260507011512 | 56 | 329 | 3.5 | 5.2 | 0.00 | 0.00 | 0.21 | 78 | 1011.8 |
| 20260507011012 | 56 | 328 | 0.9 | 3.5 | 0.00 | 0.00 | 0.21 | 79 | 1011.7 |
| 20260507010512 | 56 | 322 | 2.6 | 3.5 | 0.00 | 0.00 | 0.21 | 79 | 1011.8 |
| 20260507010011 | 56 | 292 | 3.5 | 4.3 | 0.00 | 0.00 | 0.21 | 79 | 1011.6 |
| 20260507005511 | 56 | 294 | 0.9 | 2.6 | 0.00 | 0.00 | 0.21 | 79 | 1011.5 |
| 20260507005012 | 56 | 323 | 2.6 | 4.3 | 0.00 | 0.00 | 0.21 | 79 | 1011.3 |
| 20260507004511 | 56 | 338 | 4.3 | 7.0 | 0.00 | 0.00 | 0.21 | 78 | 1011.5 |
| 20260507004013 | 56 | 314 | 2.6 | 7.0 | 0.00 | 0.00 | 0.21 | 79 | 1011.7 |
| 20260507003511 | 56 | 301 | 3.5 | 5.2 | 0.00 | 0.00 | 0.21 | 79 | 1012.0 |
| 20260507003012 | 56 | 329 | 3.5 | 6.1 | 0.00 | 0.00 | 0.21 | 78 | 1011.8 |
| 20260507002511 | 57 | 348 | 2.6 | 5.2 | 0.00 | 0.00 | 0.21 | 78 | 1011.5 |
| 20260507002012 | 57 | 318 | 0.9 | 3.5 | 0.00 | 0.00 | 0.21 | 78 | 1011.3 |
| 20260507001512 | 57 | 355 | 2.6 | 4.3 | 0.00 | 0.00 | 0.21 | 77 | 1011.5 |
| 20260507001011 | 57 | 329 | 1.7 | 2.6 | 0.00 | 0.00 | 0.21 | 77 | 1011.5 |
| 20260507000512 | 58 | 308 | 2.6 | 4.3 | 0.00 | 0.00 | 0.21 | 77 | 1011.3 |
| 20260507000012 | 58 | 325 | 2.6 | 3.5 | 0.00 | 0.00 | 0.21 | 77 | 1011.3 |
| 20260506235512 | 58 | 336 | 0.9 | 3.5 | 0.00 | 0.00 | 0.21 | 77 | 1011.1 |
| 20260506235012 | 58 | 313 | 3.5 | 5.2 | 0.00 | 0.00 | 0.21 | 76 | 1011.2 |
| 20260506234512 | 59 | 279 | 0.9 | 3.5 | 0.00 | 0.00 | 0.21 | 76 | 1011.2 |
| 20260506234013 | 59 | 350 | 2.6 | 4.3 | 0.00 | 0.00 | 0.21 | 76 | 1011.2 |
| 20260506233511 | 59 | 309 | 1.7 | 3.5 | 0.00 | 0.00 | 0.21 | 76 | 1011.2 |
| 20260506233011 | 60 | 317 | 1.7 | 3.5 | 0.00 | 0.00 | 0.21 | 76 | 1010.7 |
| 20260506232514 | 60 | 323 | 0.9 | 2.6 | 0.00 | 0.00 | 0.21 | 76 | 1010.3 |
| 20260506232011 | 60 | 290 | 1.7 | 2.6 | 0.00 | 0.00 | 0.21 | 75 | 1010.3 |
| 20260506231511 | 60 | 290 | 2.6 | 3.5 | 0.00 | 0.00 | 0.21 | 76 | 1010.1 |
| 20260506231011 | 60 | 322 | 1.7 | 2.6 | 0.00 | 0.00 | 0.21 | 75 | 1010.1 |
| 20260506230512 | 60 | 313 | 2.6 | 5.2 | 0.00 | 0.00 | 0.21 | 75 | 1010.0 |
| 20260506230014 | 60 | 284 | 1.7 | 3.5 | 0.00 | 0.00 | 0.21 | 74 | 1010.1 |
| 20260506225511 | 61 | 287 | 2.6 | 4.3 | 0.00 | 0.00 | 0.21 | 75 | 1010.1 |
| 20260506225011 | 61 | 295 | 3.5 | 6.1 | 0.00 | 0.00 | 0.21 | 74 | 1010.1 |
| 20260506224512 | 61 | 293 | 2.6 | 5.2 | 0.00 | 0.00 | 0.21 | 74 | 1010.1 |
| 20260506224011 | 61 | 323 | 2.6 | 4.3 | 0.00 | 0.00 | 0.21 | 73 | 1010.0 |
| 20260506223511 | 61 | 306 | 2.6 | 5.2 | 0.00 | 0.00 | 0.21 | 74 | 1010.0 |
| 20260506223012 | 61 | 325 | 3.5 | 5.2 | 0.00 | 0.00 | 0.21 | 73 | 1010.2 |
| 20260506222511 | 62 | 320 | 1.7 | 2.6 | 0.00 | 0.00 | 0.21 | 75 | 1010.1 |
| 20260506222012 | 62 | 310 | 1.7 | 2.6 | 0.00 | 0.00 | 0.21 | 74 | 1010.0 |
| 20260506221511 | 62 | 326 | 3.5 | 6.1 | 0.00 | 0.00 | 0.21 | 74 | 1009.8 |
| 20260506221012 | 62 | 327 | 4.3 | 7.0 | 0.00 | 0.00 | 0.21 | 75 | 1009.8 |
| 20260506220511 | 63 | 316 | 1.7 | 3.5 | 0.00 | 0.00 | 0.21 | 76 | 1009.7 |
| 20260506220012 | 63 | 300 | 2.6 | 5.2 | 0.00 | 0.00 | 0.21 | 76 | 1009.6 |
| 20260506215512 | 63 | 317 | 2.6 | 4.3 | 0.00 | 0.00 | 0.21 | 77 | 1009.6 |
| 20260506215011 | 63 | 335 | 2.6 | 4.3 | 0.00 | 0.00 | 0.21 | 76 | 1009.4 |
| 20260506214518 | 64 | 330 | 4.3 | 7.0 | 0.00 | 0.00 | 0.21 | 75 | 1009.4 |
| 20260506214012 | 64 | 324 | 2.6 | 4.3 | 0.00 | 0.00 | 0.21 | 77 | 1009.1 |
| 20260506213512 | 64 | 336 | 1.7 | 3.5 | 0.00 | 0.00 | 0.21 | 78 | 1009.1 |
| 20260506213012 | 64 | 322 | 2.6 | 3.5 | 0.00 | 0.00 | 0.21 | 78 | 1009.3 |
| 20260506212511 | 64 | 298 | 1.7 | 3.5 | 0.00 | 0.00 | 0.21 | 77 | 1009.2 |
| 20260506212012 | 64 | 277 | 0.9 | 1.7 | 0.00 | 0.00 | 0.21 | 79 | 1009.1 |
| 20260506211512 | 64 | 291 | 0.9 | 1.7 | 0.00 | 0.00 | 0.21 | 78 | 1009.1 |
| 20260506211011 | 64 | 315 | 1.7 | 3.5 | 0.00 | 0.00 | 0.21 | 78 | 1009.1 |
| 20260506210512 | 65 | 304 | 2.6 | 3.5 | 0.00 | 0.00 | 0.21 | 78 | 1008.9 |
| 20260506210012 | 65 | 309 | 2.6 | 3.5 | 0.00 | 0.00 | 0.21 | 78 | 1008.8 |
| 20260506205515 | 65 | 327 | 1.7 | 3.5 | 0.00 | 0.00 | 0.21 | 78 | 1008.7 |
| 20260506204546 | 65 | 321 | 1.7 | 4.3 | 0.00 | 0.00 | 0.21 | 81 | 1008.5 |
| 20260506204011 | 65 | 322 | 1.7 | 3.5 | 0.00 | 0.00 | 0.21 | 81 | 1008.4 |
| 20260506203511 | 66 | 343 | 1.7 | 3.5 | 0.00 | 0.00 | 0.21 | 82 | 1008.3 |
| 20260506203012 | 66 | 254 | 3.5 | 6.1 | 0.00 | 0.00 | 0.21 | 82 | 1008.3 |
| 20260506202511 | 65 | 279 | 0.0 | 1.7 | 0.00 | 0.00 | 0.21 | 84 | 1008.4 |
| 20260506202011 | 65 | 261 | 2.6 | 3.5 | 0.00 | 0.00 | 0.21 | 83 | 1008.4 |
| 20260506201512 | 66 | 279 | 1.7 | 1.7 | 0.00 | 0.00 | 0.21 | 84 | 1008.5 |
| 20260506201012 | 66 | 276 | 1.7 | 2.6 | 0.00 | 0.00 | 0.21 | 85 | 1008.3 |
| 20260506200512 | 66 | 329 | 0.0 | 0.9 | 0.00 | 0.00 | 0.21 | 85 | 1008.3 |
| 20260506200012 | 67 | 284 | 0.0 | 1.7 | 0.00 | 0.00 | 0.21 | 82 | 1008.2 |
| 20260506195512 | 67 | 262 | 0.9 | 1.7 | 0.00 | 0.00 | 0.21 | 81 | 1008.1 |
| 20260506195012 | 67 | 283 | 0.9 | 1.7 | 0.00 | 0.00 | 0.21 | 81 | 1008.0 |
| 20260506194511 | 67 | 236 | 0.9 | 1.7 | 0.00 | 0.00 | 0.21 | 84 | 1008.0 |
| 20260506194012 | 67 | 250 | 0.9 | 1.7 | 0.00 | 0.00 | 0.21 | 82 | 1008.0 |
| 20260506193512 | 68 | 247 | 1.7 | 2.6 | 0.00 | 0.00 | 0.21 | 84 | 1008.0 |
| 20260506193012 | 67 | 344 | 0.0 | 0.9 | 0.00 | 0.00 | 0.21 | 85 | 1007.9 |
| 20260506192513 | 66 | 0 | 0.0 | 0.0 | 0.00 | 0.00 | 0.21 | 87 | 1008.0 |
| 20260506192012 | 66 | 83 | 0.0 | 1.7 | 0.00 | 0.00 | 0.21 | 89 | 1008.0 |
| 20260506191512 | 65 | 266 | 0.9 | 1.7 | 0.00 | 0.00 | 0.21 | 89 | 1008.1 |
| 20260506191012 | 65 | 164 | 0.0 | 1.7 | 0.00 | 0.00 | 0.21 | 88 | 1008.2 |
| 20260506190512 | 65 | 91 | 1.7 | 1.7 | 0.00 | 0.00 | 0.21 | 88 | 1008.2 |
| 20260506190012 | 65 | 0 | 0.0 | 0.0 | 0.00 | 0.00 | 0.21 | 89 | 1008.2 |
| 20260506185512 | 65 | 212 | 0.0 | 1.7 | 0.00 | 0.00 | 0.21 | 89 | 1008.2 |
| 20260506185012 | 65 | 0 | 0.0 | 0.0 | 0.00 | 0.00 | 0.21 | 90 | 1008.2 |
| 20260506184511 | 65 | 115 | 0.0 | 1.7 | 0.00 | 0.00 | 0.21 | 90 | 1008.2 |
| 20260506184011 | 65 | 163 | 0.0 | 2.6 | 0.00 | 0.00 | 0.21 | 91 | 1008.2 |
| 20260506183511 | 64 | 0 | 0.0 | 0.0 | 0.00 | 0.00 | 0.21 | 90 | 1008.2 |
| 20260506183012 | 64 | 307 | 0.0 | 0.9 | 0.00 | 0.00 | 0.21 | 91 | 1008.3 |
| 20260506182512 | 63 | 0 | 0.0 | 0.0 | 0.00 | 0.00 | 0.21 | 91 | 1008.4 |
| 20260506182011 | 63 | 261 | 1.7 | 2.6 | 0.00 | 0.00 | 0.21 | 92 | 1008.5 |
| 20260506181024 | 64 | 168 | 0.0 | 1.7 | 0.00 | 0.00 | 0.21 | 92 | 1008.4 |
| 20260506180511 | 64 | 260 | 1.7 | 1.7 | 0.00 | 0.00 | 0.21 | 91 | 1008.5 |
| 20260506180012 | 64 | 185 | 0.0 | 1.7 | 0.00 | 0.00 | 0.21 | 90 | 1008.5 |
| 20260506175512 | 64 | 258 | 1.7 | 2.6 | 0.00 | 0.00 | 0.21 | 91 | 1008.5 |
| 20260506175012 | 64 | 12 | 0.0 | 2.6 | 0.00 | 0.00 | 0.21 | 93 | 1008.5 |
| 20260506174512 | 62 | 311 | 0.0 | 0.9 | 0.00 | 0.00 | 0.21 | 94 | 1008.4 |
| 20260506174012 | 62 | 235 | 1.7 | 3.5 | 0.00 | 0.00 | 0.21 | 93 | 1008.6 |
| 20260506173512 | 62 | 259 | 1.7 | 2.6 | 0.00 | 0.00 | 0.21 | 93 | 1008.6 |
| 20260506173013 | 62 | 230 | 1.7 | 1.7 | 0.00 | 0.00 | 0.21 | 92 | 1008.6 |
| 20260506172512 | 63 | 256 | 0.9 | 1.7 | 0.00 | 0.00 | 0.21 | 91 | 1008.6 |
| 20260506172012 | 62 | 281 | 0.0 | 1.7 | 0.00 | 0.00 | 0.21 | 92 | 1008.6 |
| 20260506171512 | 62 | 274 | 0.0 | 0.9 | 0.00 | 0.00 | 0.21 | 91 | 1008.6 |
| 20260506171019 | 62 | 286 | 0.9 | 1.7 | 0.00 | 0.00 | 0.21 | 92 | 1008.5 |
| 20260506170512 | 62 | 281 | 0.0 | 0.9 | 0.00 | 0.00 | 0.21 | 90 | 1008.4 |
| 20260506170012 | 62 | 279 | 0.0 | 1.7 | 0.00 | 0.00 | 0.21 | 90 | 1008.4 |
| 20260506165512 | 62 | 0 | 0.0 | 0.0 | 0.00 | 0.00 | 0.21 | 90 | 1008.3 |
| 20260506165012 | 62 | 0 | 0.0 | 0.0 | 0.00 | 0.00 | 0.21 | 92 | 1008.2 |
| 20260506164516 | 62 | 255 | 1.7 | 1.7 | 0.00 | 0.00 | 0.21 | 91 | 1008.3 |